createdAt,value
2023-03-19T00:00:56.382Z,99343.91
2023-03-19T00:02:04.062Z,99352.66
2023-03-19T00:03:13.830Z,99343.72
2023-03-19T00:04:15.470Z,99345.25
2023-03-19T00:05:17.722Z,99342.38
2023-03-19T00:06:19.358Z,99345.88
2023-03-19T00:07:20.954Z,99346.00
2023-03-19T00:08:22.988Z,99340.03
2023-03-19T00:09:24.563Z,99342.72
2023-03-19T00:10:26.195Z,99343.09
2023-03-19T00:11:28.094Z,99345.69
2023-03-19T00:12:29.667Z,99333.69
2023-03-19T00:13:31.219Z,99336.97
2023-03-19T00:14:32.886Z,99335.47
2023-03-19T00:15:34.823Z,99341.00
2023-03-19T00:16:36.748Z,99335.88
2023-03-19T00:17:38.328Z,99340.56
2023-03-19T00:18:40.086Z,99345.44
2023-03-19T00:19:41.636Z,99340.28
2023-03-19T00:20:43.536Z,99334.41
2023-03-19T00:21:45.096Z,99341.03
2023-03-19T00:22:46.793Z,99343.63
2023-03-19T00:23:48.319Z,99335.63
2023-03-19T00:24:49.962Z,99345.31
2023-03-19T00:25:51.508Z,99346.44
2023-03-19T00:26:53.071Z,99352.75
2023-03-19T00:27:55.031Z,99351.72
2023-03-19T00:28:57.870Z,99349.31
2023-03-19T00:29:59.411Z,99354.72
2023-03-19T00:31:16.215Z,99364.28
2023-03-19T00:32:17.871Z,99359.06
2023-03-19T00:33:19.553Z,99355.00
2023-03-19T00:34:21.336Z,99361.41
2023-03-19T00:35:23.907Z,99352.75
2023-03-19T00:36:27.074Z,99352.84
2023-03-19T00:37:28.697Z,99353.19
2023-03-19T00:38:30.319Z,99361.94
2023-03-19T00:39:31.874Z,99361.88
2023-03-19T00:40:33.431Z,99358.59
2023-03-19T00:41:35.165Z,99356.84
2023-03-19T00:42:36.736Z,99351.19
2023-03-19T00:43:39.082Z,99356.13
2023-03-19T00:44:40.679Z,99354.06
2023-03-19T00:45:42.286Z,99354.72
2023-03-19T00:46:43.947Z,99348.03
2023-03-19T00:47:45.496Z,99340.56
2023-03-19T00:48:48.329Z,99346.50
2023-03-19T00:49:49.875Z,99351.00
2023-03-19T00:50:51.597Z,99346.03
2023-03-19T00:51:53.174Z,99347.50
2023-03-19T00:52:54.763Z,99352.84
2023-03-19T00:53:56.295Z,99337.31
2023-03-19T00:54:57.993Z,99342.16
2023-03-19T00:55:59.605Z,99341.88
2023-03-19T00:57:01.172Z,99340.69
2023-03-19T00:58:02.952Z,99344.13
2023-03-19T00:59:04.563Z,99348.81
2023-03-19T01:00:06.930Z,99349.56
2023-03-19T01:01:10.123Z,99351.22
2023-03-19T01:02:11.766Z,99347.50
2023-03-19T01:03:13.358Z,99344.28
2023-03-19T01:04:14.961Z,99348.44
2023-03-19T01:05:16.846Z,99344.91
2023-03-19T01:06:18.417Z,99342.56
2023-03-19T01:07:19.966Z,99346.28
2023-03-19T01:08:21.538Z,99344.88
2023-03-19T01:09:23.115Z,99342.19
2023-03-19T01:10:25.124Z,99334.16
2023-03-19T01:11:26.700Z,99341.78
2023-03-19T01:12:28.288Z,99348.31
2023-03-19T01:13:30.036Z,99339.47
2023-03-19T01:14:32.264Z,99347.84
2023-03-19T01:15:38.175Z,99346.66
2023-03-19T01:16:39.717Z,99347.75
2023-03-19T01:17:41.467Z,99347.59
2023-03-19T01:18:43.175Z,99346.94
2023-03-19T01:19:44.882Z,99347.66
2023-03-19T01:20:46.432Z,99347.84
2023-03-19T01:21:48.793Z,99341.97
2023-03-19T01:22:54.247Z,99349.78
2023-03-19T01:23:55.931Z,99345.59
2023-03-19T01:24:58.965Z,99346.03
2023-03-19T01:26:00.591Z,99345.28
2023-03-19T01:27:03.641Z,99346.13
2023-03-19T01:28:07.035Z,99336.88
2023-03-19T01:29:10.910Z,99343.03
2023-03-19T01:30:12.793Z,99344.06
2023-03-19T01:31:46.495Z,99344.06
2023-03-19T01:32:59.053Z,99340.69
2023-03-19T01:34:33.171Z,99343.09
2023-03-19T01:35:45.830Z,99340.47
2023-03-19T01:36:47.549Z,99338.78
2023-03-19T01:37:52.173Z,99339.06
2023-03-19T01:38:54.142Z,99334.19
2023-03-19T01:39:55.862Z,99334.94
2023-03-19T01:40:57.841Z,99338.44
2023-03-19T01:42:03.722Z,99338.88
2023-03-19T01:43:32.096Z,99337.34
2023-03-19T01:44:46.948Z,99333.00
2023-03-19T01:46:26.636Z,99336.28
2023-03-19T01:47:51.261Z,99336.22
2023-03-19T01:49:05.343Z,99335.78
2023-03-19T01:50:23.411Z,99335.97
2023-03-19T01:51:42.888Z,99340.88
2023-03-19T01:52:52.566Z,99340.81
2023-03-19T01:54:05.425Z,99339.97
2023-03-19T01:55:16.912Z,99339.22
2023-03-19T01:56:40.764Z,99348.97
2023-03-19T01:57:57.568Z,99343.91
2023-03-19T01:59:33.878Z,99340.31
2023-03-19T02:01:02.683Z,99343.84
2023-03-19T02:02:18.049Z,99340.31
2023-03-19T02:03:19.701Z,99348.19
2023-03-19T02:04:27.564Z,99343.34
2023-03-19T02:05:30.663Z,99346.69
2023-03-19T02:06:40.570Z,99348.72
2023-03-19T02:07:44.737Z,99346.03
2023-03-19T02:08:47.573Z,99356.44
2023-03-19T02:09:49.212Z,99351.91
2023-03-19T02:10:52.871Z,99358.78
2023-03-19T02:11:55.310Z,99350.91
2023-03-19T02:12:57.121Z,99354.44
2023-03-19T02:13:58.828Z,99361.31
2023-03-19T02:15:00.573Z,99359.47
2023-03-19T02:16:02.614Z,99353.81
2023-03-19T02:17:06.152Z,99357.28
2023-03-19T02:18:08.519Z,99366.44
2023-03-19T02:19:17.165Z,99361.38
2023-03-19T02:20:37.056Z,99357.03
2023-03-19T02:21:39.013Z,99354.66
2023-03-19T02:22:46.140Z,99352.00
2023-03-19T02:24:29.375Z,99358.03
2023-03-19T02:25:44.068Z,99360.63
2023-03-19T02:26:47.504Z,99358.88
2023-03-19T02:27:49.185Z,99357.09
2023-03-19T02:28:53.171Z,99365.16
2023-03-19T02:30:02.973Z,99361.22
2023-03-19T02:31:05.118Z,99368.09
2023-03-19T02:32:06.846Z,99360.31
2023-03-19T02:33:17.225Z,99368.19
2023-03-19T02:34:21.854Z,99368.28
2023-03-19T02:35:23.669Z,99366.75
2023-03-19T02:36:34.428Z,99365.16
2023-03-19T02:37:36.114Z,99366.47
2023-03-19T02:38:40.605Z,99367.59
2023-03-19T02:40:03.411Z,99368.69
2023-03-19T02:41:07.650Z,99370.59
2023-03-19T02:42:11.258Z,99367.59
2023-03-19T02:43:12.840Z,99368.53
2023-03-19T02:44:14.386Z,99373.03
2023-03-19T02:45:16.319Z,99366.91
2023-03-19T02:46:18.418Z,99366.34
2023-03-19T02:47:20.084Z,99371.78
2023-03-19T02:48:21.689Z,99375.13
2023-03-19T02:49:23.291Z,99368.31
2023-03-19T02:50:24.799Z,99367.34
2023-03-19T02:51:26.374Z,99370.75
2023-03-19T02:52:27.967Z,99365.03
2023-03-19T02:53:29.698Z,99364.47
2023-03-19T02:54:31.259Z,99367.06
2023-03-19T02:55:32.905Z,99360.94
2023-03-19T02:56:34.712Z,99367.88
2023-03-19T02:57:36.300Z,99366.47
2023-03-19T02:58:38.132Z,99367.31
2023-03-19T02:59:39.687Z,99363.59
2023-03-19T03:00:42.059Z,99361.53
2023-03-19T03:01:43.797Z,99353.91
2023-03-19T03:02:45.913Z,99355.56
2023-03-19T03:03:47.606Z,99357.00
2023-03-19T03:04:49.238Z,99357.84
2023-03-19T03:05:50.827Z,99351.81
2023-03-19T03:06:52.674Z,99355.31
2023-03-19T03:07:54.252Z,99359.59
2023-03-19T03:08:55.807Z,99358.16
2023-03-19T03:09:57.378Z,99354.75
2023-03-19T03:10:58.951Z,99354.75
2023-03-19T03:12:00.638Z,99354.75
2023-03-19T03:13:02.517Z,99357.59
2023-03-19T03:14:04.349Z,99347.03
2023-03-19T03:15:07.174Z,99355.00
2023-03-19T03:16:09.361Z,99357.91
2023-03-19T03:17:11.221Z,99352.47
2023-03-19T03:18:12.984Z,99358.59
2023-03-19T03:19:14.614Z,99357.56
2023-03-19T03:20:17.839Z,99352.19
2023-03-19T03:21:19.652Z,99353.22
2023-03-19T03:22:21.259Z,99362.44
2023-03-19T03:23:22.855Z,99367.03
2023-03-19T03:24:24.423Z,99367.13
2023-03-19T03:25:25.995Z,99362.91
2023-03-19T03:26:27.566Z,99360.38
2023-03-19T03:27:29.419Z,99363.16
2023-03-19T03:28:31.002Z,99359.56
2023-03-19T03:29:32.583Z,99362.91
2023-03-19T03:30:34.295Z,99367.19
2023-03-19T03:31:36.119Z,99362.69
2023-03-19T03:32:39.301Z,99365.19
2023-03-19T03:33:41.021Z,99362.50
2023-03-19T03:34:42.813Z,99365.28
2023-03-19T03:35:44.452Z,99360.16
2023-03-19T03:36:46.030Z,99361.75
2023-03-19T03:37:51.681Z,99361.59
2023-03-19T03:38:54.045Z,99366.53
2023-03-19T03:39:55.729Z,99355.41
2023-03-19T03:40:58.840Z,99367.31
2023-03-19T03:42:01.470Z,99365.88
2023-03-19T03:43:04.522Z,99368.22
2023-03-19T03:44:08.173Z,99367.53
2023-03-19T03:45:12.866Z,99355.47
2023-03-19T03:46:16.227Z,99361.59
2023-03-19T03:47:18.054Z,99369.06
2023-03-19T03:48:19.709Z,99366.53
2023-03-19T03:49:21.520Z,99364.19
2023-03-19T03:50:23.245Z,99368.28
2023-03-19T03:51:27.671Z,99362.41
2023-03-19T03:52:29.349Z,99368.41
2023-03-19T03:53:30.911Z,99364.25
2023-03-19T03:54:32.918Z,99366.06
2023-03-19T03:55:35.093Z,99366.91
2023-03-19T03:56:36.775Z,99359.13
2023-03-19T03:57:38.390Z,99364.38
2023-03-19T03:58:39.998Z,99364.47
2023-03-19T03:59:41.730Z,99353.41
2023-03-19T04:00:43.522Z,99360.84
2023-03-19T04:01:45.093Z,99364.25
2023-03-19T04:02:46.931Z,99357.53
2023-03-19T04:03:50.346Z,99360.91
2023-03-19T04:04:52.225Z,99361.75
2023-03-19T04:05:53.824Z,99361.66
2023-03-19T04:06:57.089Z,99364.19
2023-03-19T04:08:13.804Z,99355.31
2023-03-19T04:09:15.724Z,99359.41
2023-03-19T04:10:17.563Z,99358.59
2023-03-19T04:11:19.468Z,99357.66
2023-03-19T04:12:21.061Z,99361.94
2023-03-19T04:13:22.728Z,99356.69
2023-03-19T04:14:24.893Z,99353.00
2023-03-19T04:15:26.474Z,99360.72
2023-03-19T04:16:30.433Z,99350.00
2023-03-19T04:17:32.437Z,99350.97
2023-03-19T04:18:34.350Z,99350.16
2023-03-19T04:19:36.043Z,99351.84
2023-03-19T04:20:37.576Z,99349.56
2023-03-19T04:21:39.266Z,99347.72
2023-03-19T04:22:40.846Z,99351.16
2023-03-19T04:23:42.469Z,99351.25
2023-03-19T04:24:44.036Z,99346.97
2023-03-19T04:25:45.615Z,99349.47
2023-03-19T04:26:47.124Z,99352.31
2023-03-19T04:27:48.973Z,99356.00
2023-03-19T04:28:50.584Z,99351.78
2023-03-19T04:29:52.228Z,99352.34
2023-03-19T04:31:05.706Z,99362.13
2023-03-19T04:32:08.899Z,99366.03
2023-03-19T04:33:11.418Z,99359.31
2023-03-19T04:34:13.468Z,99358.00
2023-03-19T04:35:15.101Z,99360.00
2023-03-19T04:36:16.808Z,99362.13
2023-03-19T04:37:19.299Z,99349.22
2023-03-19T04:38:25.803Z,99360.06
2023-03-19T04:39:27.791Z,99356.25
2023-03-19T04:40:29.465Z,99351.66
2023-03-19T04:41:31.253Z,99349.59
2023-03-19T04:42:45.981Z,99353.59
2023-03-19T04:43:56.895Z,99351.81
2023-03-19T04:44:58.913Z,99351.22
2023-03-19T04:46:00.809Z,99354.34
2023-03-19T04:47:02.798Z,99354.34
2023-03-19T04:48:10.498Z,99353.19
2023-03-19T04:49:12.807Z,99356.50
2023-03-19T04:50:14.490Z,99351.19
2023-03-19T04:51:17.537Z,99353.78
2023-03-19T04:52:19.833Z,99349.84
2023-03-19T04:53:22.088Z,99361.59
2023-03-19T04:54:25.130Z,99363.19
2023-03-19T04:55:26.692Z,99363.78
2023-03-19T04:56:39.715Z,99358.31
2023-03-19T04:57:41.695Z,99360.53
2023-03-19T04:58:44.914Z,99365.97
2023-03-19T04:59:46.669Z,99363.19
2023-03-19T05:00:50.196Z,99364.97
2023-03-19T05:01:56.880Z,99359.91
2023-03-19T05:02:59.488Z,99361.91
2023-03-19T05:04:02.757Z,99358.22
2023-03-19T05:05:06.578Z,99358.06
2023-03-19T05:06:08.379Z,99359.91
2023-03-19T05:07:10.133Z,99364.28
2023-03-19T05:08:12.336Z,99366.78
2023-03-19T05:09:14.074Z,99361.91
2023-03-19T05:10:17.807Z,99362.06
2023-03-19T05:11:19.962Z,99361.06
2023-03-19T05:12:43.677Z,99363.59
2023-03-19T05:13:46.170Z,99360.75
2023-03-19T05:14:47.895Z,99358.47
2023-03-19T05:15:54.797Z,99364.13
2023-03-19T05:16:56.696Z,99362.44
2023-03-19T05:17:59.636Z,99362.00
2023-03-19T05:19:07.504Z,99355.72
2023-03-19T05:20:11.269Z,99358.16
2023-03-19T05:21:16.475Z,99347.09
2023-03-19T05:22:19.832Z,99362.31
2023-03-19T05:23:21.932Z,99361.06
2023-03-19T05:24:31.775Z,99361.91
2023-03-19T05:25:34.939Z,99367.31
2023-03-19T05:26:36.791Z,99359.50
2023-03-19T05:27:57.248Z,99363.03
2023-03-19T05:29:00.126Z,99361.31
2023-03-19T05:30:11.822Z,99361.31
2023-03-19T05:31:22.442Z,99363.84
2023-03-19T05:32:27.674Z,99366.72
2023-03-19T05:33:29.666Z,99373.50
2023-03-19T05:34:31.693Z,99368.88
2023-03-19T05:35:33.425Z,99369.59
2023-03-19T05:36:36.461Z,99358.69
2023-03-19T05:37:52.021Z,99363.81
2023-03-19T05:38:53.726Z,99361.94
2023-03-19T05:40:02.551Z,99367.47
2023-03-19T05:41:05.862Z,99371.44
2023-03-19T05:42:27.699Z,99369.69
2023-03-19T05:43:31.970Z,99374.19
2023-03-19T05:44:35.331Z,99371.16
2023-03-19T05:45:59.267Z,99379.25
2023-03-19T05:47:05.004Z,99378.28
2023-03-19T05:48:09.616Z,99382.66
2023-03-19T05:49:15.597Z,99387.25
2023-03-19T05:50:18.636Z,99369.22
2023-03-19T05:51:38.858Z,99372.75
2023-03-19T05:52:42.131Z,99373.00
2023-03-19T05:53:44.987Z,99371.28
2023-03-19T05:55:18.756Z,99377.13
2023-03-19T05:56:25.079Z,99380.16
2023-03-19T05:57:46.876Z,99371.56
2023-03-19T05:58:52.883Z,99373.72
2023-03-19T05:59:59.531Z,99372.44
2023-03-19T06:01:21.942Z,99369.69
2023-03-19T06:02:24.050Z,99377.47
2023-03-19T06:03:33.442Z,99374.34
2023-03-19T06:04:39.792Z,99369.16
2023-03-19T06:05:43.208Z,99370.59
2023-03-19T06:07:06.731Z,99380.13
2023-03-19T06:08:10.779Z,99379.53
2023-03-19T06:09:36.022Z,99374.75
2023-03-19T06:10:37.630Z,99375.50
2023-03-19T06:11:44.190Z,99376.19
2023-03-19T06:13:18.002Z,99371.06
2023-03-19T06:14:28.122Z,99371.91
2023-03-19T06:15:50.056Z,99372.63
2023-03-19T06:17:02.687Z,99370.47
2023-03-19T06:18:04.591Z,99370.00
2023-03-19T06:19:06.212Z,99371.69
2023-03-19T06:20:08.334Z,99374.91
2023-03-19T06:21:09.997Z,99372.13
2023-03-19T06:22:12.067Z,99382.28
2023-03-19T06:23:16.275Z,99381.09
2023-03-19T06:24:18.084Z,99380.97
2023-03-19T06:25:19.767Z,99377.41
2023-03-19T06:26:21.345Z,99380.88
2023-03-19T06:27:27.462Z,99385.50
2023-03-19T06:28:38.625Z,99375.00
2023-03-19T06:29:40.195Z,99381.41
2023-03-19T06:30:55.931Z,99380.50
2023-03-19T06:32:26.397Z,99382.78
2023-03-19T06:33:28.977Z,99391.22
2023-03-19T06:34:30.552Z,99387.78
2023-03-19T06:35:32.271Z,99388.38
2023-03-19T06:36:34.068Z,99384.91
2023-03-19T06:37:37.598Z,99387.78
2023-03-19T06:38:39.230Z,99385.88
2023-03-19T06:39:40.971Z,99387.69
2023-03-19T06:40:42.522Z,99394.81
2023-03-19T06:41:44.033Z,99392.31
2023-03-19T06:42:50.800Z,99391.00
2023-03-19T06:43:53.548Z,99384.66
2023-03-19T06:44:55.121Z,99380.59
2023-03-19T06:45:56.860Z,99385.81
2023-03-19T06:46:58.422Z,99378.72
2023-03-19T06:48:00.451Z,99379.66
2023-03-19T06:49:02.025Z,99380.81
2023-03-19T06:50:03.793Z,99383.94
2023-03-19T06:51:07.183Z,99387.50
2023-03-19T06:52:09.214Z,99382.78
2023-03-19T06:53:10.808Z,99378.09
2023-03-19T06:54:12.375Z,99378.34
2023-03-19T06:55:13.952Z,99368.31
2023-03-19T06:56:15.657Z,99375.34
2023-03-19T06:57:17.220Z,99375.13
2023-03-19T06:58:18.861Z,99373.75
2023-03-19T06:59:20.539Z,99375.97
2023-03-19T07:00:22.451Z,99368.78
2023-03-19T07:01:24.134Z,99378.06
2023-03-19T07:02:25.835Z,99366.78
2023-03-19T07:03:27.458Z,99375.22
2023-03-19T07:04:30.173Z,99369.38
2023-03-19T07:05:31.733Z,99371.63
2023-03-19T07:06:33.270Z,99358.66
2023-03-19T07:07:34.822Z,99370.75
2023-03-19T07:08:36.378Z,99368.63
2023-03-19T07:09:37.985Z,99360.13
2023-03-19T07:10:39.727Z,99359.75
2023-03-19T07:11:41.429Z,99362.88
2023-03-19T07:12:42.986Z,99364.19
2023-03-19T07:13:44.587Z,99369.88
2023-03-19T07:14:46.155Z,99363.44
2023-03-19T07:15:49.484Z,99370.59
2023-03-19T07:16:51.095Z,99363.44
2023-03-19T07:17:52.654Z,99368.81
2023-03-19T07:18:54.194Z,99372.75
2023-03-19T07:19:55.775Z,99368.38
2023-03-19T07:20:57.350Z,99364.69
2023-03-19T07:21:58.978Z,99368.81
2023-03-19T07:23:03.726Z,99364.72
2023-03-19T07:24:05.487Z,99366.16
2023-03-19T07:25:07.781Z,99366.38
2023-03-19T07:26:09.382Z,99359.44
2023-03-19T07:27:11.082Z,99372.56
2023-03-19T07:28:12.830Z,99368.56
2023-03-19T07:29:14.444Z,99373.75
2023-03-19T07:30:16.167Z,99373.94
2023-03-19T07:31:17.787Z,99371.75
2023-03-19T07:32:19.376Z,99379.69
2023-03-19T07:33:21.417Z,99375.81
2023-03-19T07:34:23.265Z,99377.97
2023-03-19T07:35:24.893Z,99378.97
2023-03-19T07:36:26.458Z,99379.44
2023-03-19T07:37:28.040Z,99368.78
2023-03-19T07:38:29.627Z,99376.84
2023-03-19T07:39:31.183Z,99376.63
2023-03-19T07:40:33.046Z,99375.97
2023-03-19T07:41:34.967Z,99374.59
2023-03-19T07:42:36.616Z,99375.31
2023-03-19T07:43:38.257Z,99376.97
2023-03-19T07:44:39.821Z,99380.44
2023-03-19T07:45:41.398Z,99377.75
2023-03-19T07:46:43.205Z,99371.34
2023-03-19T07:47:44.794Z,99373.59
2023-03-19T07:48:46.336Z,99372.03
2023-03-19T07:49:47.878Z,99376.84
2023-03-19T07:50:52.628Z,99368.81
2023-03-19T07:51:54.157Z,99366.81
2023-03-19T07:52:55.750Z,99369.47
2023-03-19T07:53:57.349Z,99374.38
2023-03-19T07:54:58.961Z,99371.38
2023-03-19T07:56:00.938Z,99373.25
2023-03-19T07:57:02.537Z,99382.69
2023-03-19T07:58:04.122Z,99379.25
2023-03-19T07:59:05.852Z,99374.88
2023-03-19T08:00:08.274Z,99371.16
2023-03-19T08:01:14.432Z,99373.78
2023-03-19T08:02:16.288Z,99367.25
2023-03-19T08:03:17.896Z,99372.06
2023-03-19T08:04:19.567Z,99369.97
2023-03-19T08:05:21.242Z,99373.16
2023-03-19T08:06:22.875Z,99373.03
2023-03-19T08:07:24.701Z,99366.72
2023-03-19T08:08:26.399Z,99361.81
2023-03-19T08:09:28.396Z,99366.19
2023-03-19T08:10:30.464Z,99372.75
2023-03-19T08:11:32.053Z,99373.97
2023-03-19T08:12:33.760Z,99363.69
2023-03-19T08:13:35.345Z,99364.50
2023-03-19T08:14:36.945Z,99360.59
2023-03-19T08:15:38.497Z,99357.94
2023-03-19T08:16:40.081Z,99359.31
2023-03-19T08:17:41.757Z,99363.50
2023-03-19T08:18:43.303Z,99357.13
2023-03-19T08:19:46.005Z,99360.44
2023-03-19T08:20:48.496Z,99355.69
2023-03-19T08:21:50.037Z,99366.03
2023-03-19T08:22:51.933Z,99366.34
2023-03-19T08:23:53.744Z,99360.34
2023-03-19T08:24:55.320Z,99370.22
2023-03-19T08:25:56.929Z,99364.75
2023-03-19T08:26:58.800Z,99364.81
2023-03-19T08:28:01.167Z,99362.19
2023-03-19T08:29:03.208Z,99363.91
2023-03-19T08:30:07.002Z,99360.31
2023-03-19T08:31:11.379Z,99367.44
2023-03-19T08:32:13.324Z,99368.03
2023-03-19T08:33:15.810Z,99363.31
2023-03-19T08:34:17.384Z,99376.13
2023-03-19T08:35:19.092Z,99360.81
2023-03-19T08:36:20.626Z,99368.16
2023-03-19T08:37:22.271Z,99377.19
2023-03-19T08:38:23.782Z,99371.31
2023-03-19T08:39:25.336Z,99367.41
2023-03-19T08:40:27.202Z,99372.41
2023-03-19T08:41:28.808Z,99363.91
2023-03-19T08:42:30.782Z,99360.78
2023-03-19T08:43:33.849Z,99361.69
2023-03-19T08:44:35.440Z,99363.31
2023-03-19T08:45:36.945Z,99357.16
2023-03-19T08:46:38.603Z,99367.31
2023-03-19T08:47:40.753Z,99364.94
2023-03-19T08:48:42.539Z,99362.28
2023-03-19T08:49:44.222Z,99357.31
2023-03-19T08:50:45.768Z,99365.63
2023-03-19T08:51:47.365Z,99356.16
2023-03-19T08:52:49.296Z,99359.88
2023-03-19T08:53:50.872Z,99346.78
2023-03-19T08:54:53.055Z,99356.25
2023-03-19T08:55:57.184Z,99357.22
2023-03-19T08:57:00.202Z,99356.53
2023-03-19T08:58:01.784Z,99364.22
2023-03-19T08:59:03.330Z,99360.22
2023-03-19T09:00:05.718Z,99357.00
2023-03-19T09:01:11.990Z,99361.22
2023-03-19T09:02:13.808Z,99361.50
2023-03-19T09:03:16.619Z,99360.28
2023-03-19T09:04:18.666Z,99353.94
2023-03-19T09:05:20.384Z,99355.59
2023-03-19T09:06:22.007Z,99350.19
2023-03-19T09:07:23.608Z,99347.25
2023-03-19T09:08:25.248Z,99347.25
2023-03-19T09:09:26.876Z,99351.66
2023-03-19T09:10:28.561Z,99346.56
2023-03-19T09:11:30.206Z,99346.69
2023-03-19T09:12:31.783Z,99351.41
2023-03-19T09:13:33.371Z,99356.16
2023-03-19T09:14:36.194Z,99351.66
2023-03-19T09:15:37.938Z,99355.00
2023-03-19T09:16:40.600Z,99353.09
2023-03-19T09:17:42.155Z,99357.13
2023-03-19T09:18:43.711Z,99353.63
2023-03-19T09:19:45.594Z,99348.50
2023-03-19T09:20:47.851Z,99354.19
2023-03-19T09:21:49.658Z,99348.69
2023-03-19T09:22:51.176Z,99347.09
2023-03-19T09:23:52.745Z,99345.06
2023-03-19T09:24:54.340Z,99339.69
2023-03-19T09:25:55.927Z,99339.63
2023-03-19T09:26:57.489Z,99342.50
2023-03-19T09:27:59.094Z,99336.13
2023-03-19T09:29:00.652Z,99340.00
2023-03-19T09:30:02.517Z,99338.13
2023-03-19T09:31:04.163Z,99336.38
2023-03-19T09:32:05.814Z,99344.97
2023-03-19T09:33:07.493Z,99339.22
2023-03-19T09:34:09.147Z,99340.88
2023-03-19T09:35:10.842Z,99346.19
2023-03-19T09:36:12.472Z,99343.41
2023-03-19T09:37:14.138Z,99345.28
2023-03-19T09:38:15.689Z,99343.25
2023-03-19T09:39:17.258Z,99343.09
2023-03-19T09:40:31.619Z,99346.16
2023-03-19T09:41:35.928Z,99348.09
2023-03-19T09:43:20.625Z,99344.53
2023-03-19T09:44:37.554Z,99347.31
2023-03-19T09:45:39.143Z,99338.88
2023-03-19T09:46:52.534Z,99347.28
2023-03-19T09:47:58.625Z,99350.00
2023-03-19T09:49:12.570Z,99344.13
2023-03-19T09:50:20.436Z,99334.72
2023-03-19T09:51:30.122Z,99340.22
2023-03-19T09:52:37.576Z,99343.75
2023-03-19T09:54:15.784Z,99340.66
2023-03-19T09:55:29.483Z,99339.81
2023-03-19T09:56:33.246Z,99339.81
2023-03-19T09:57:36.373Z,99339.50
2023-03-19T09:58:38.340Z,99335.22
2023-03-19T09:59:40.965Z,99329.94
2023-03-19T10:00:44.376Z,99336.47
2023-03-19T10:01:54.127Z,99329.34
2023-03-19T10:03:06.171Z,99333.53
2023-03-19T10:04:34.063Z,99330.06
2023-03-19T10:05:44.262Z,99328.63
2023-03-19T10:06:46.080Z,99327.78
2023-03-19T10:07:56.296Z,99329.44
2023-03-19T10:09:48.892Z,99321.19
2023-03-19T10:11:04.072Z,99318.50
2023-03-19T10:12:45.434Z,99316.97
2023-03-19T10:13:59.786Z,99321.75
2023-03-19T10:15:15.588Z,99311.53
2023-03-19T10:16:23.291Z,99316.19
2023-03-19T10:17:31.000Z,99315.03
2023-03-19T10:18:35.957Z,99307.09
2023-03-19T10:19:53.258Z,99309.09
2023-03-19T10:21:03.598Z,99308.28
2023-03-19T10:22:11.539Z,99313.47
2023-03-19T10:23:34.545Z,99313.31
2023-03-19T10:24:41.948Z,99305.53
2023-03-19T10:25:44.702Z,99318.44
2023-03-19T10:26:46.487Z,99309.19
2023-03-19T10:27:55.683Z,99303.41
2023-03-19T10:29:10.094Z,99312.00
2023-03-19T10:30:15.441Z,99308.22
2023-03-19T10:31:28.318Z,99310.72
2023-03-19T10:32:43.235Z,99302.44
2023-03-19T10:33:53.036Z,99301.59
2023-03-19T10:34:57.511Z,99299.44
2023-03-19T10:36:11.353Z,99303.56
2023-03-19T10:37:19.835Z,99298.94
2023-03-19T10:38:27.102Z,99293.16
2023-03-19T10:39:30.829Z,99284.84
2023-03-19T10:40:49.225Z,99289.66
2023-03-19T10:42:18.497Z,99276.06
2023-03-19T10:43:25.208Z,99276.59
2023-03-19T10:44:38.550Z,99277.59
2023-03-19T10:45:40.496Z,99287.34
2023-03-19T10:46:42.325Z,99278.25
2023-03-19T10:47:44.949Z,99274.25
2023-03-19T10:48:47.197Z,99277.22
2023-03-19T10:49:51.095Z,99262.31
2023-03-19T10:50:54.850Z,99267.66
2023-03-19T10:51:57.506Z,99258.22
2023-03-19T10:53:31.108Z,99264.34
2023-03-19T10:54:32.697Z,99263.34
2023-03-19T10:55:34.780Z,99262.00
2023-03-19T10:56:36.483Z,99265.34
2023-03-19T10:57:41.959Z,99257.06
2023-03-19T10:59:03.461Z,99254.91
2023-03-19T11:00:25.158Z,99265.03
2023-03-19T11:01:35.990Z,99260.41
2023-03-19T11:02:45.852Z,99261.41
2023-03-19T11:03:55.667Z,99260.72
2023-03-19T11:05:18.953Z,99262.03
2023-03-19T11:06:38.285Z,99256.91
2023-03-19T11:07:40.181Z,99255.09
2023-03-19T11:08:41.971Z,99252.13
2023-03-19T11:09:49.816Z,99259.25
2023-03-19T11:10:51.475Z,99255.59
2023-03-19T11:12:05.451Z,99252.44
2023-03-19T11:13:20.790Z,99247.78
2023-03-19T11:14:30.683Z,99244.63
2023-03-19T11:15:39.219Z,99244.63
2023-03-19T11:16:48.147Z,99243.47
2023-03-19T11:17:56.967Z,99243.97
2023-03-19T11:18:58.579Z,99247.81
2023-03-19T11:20:28.318Z,99243.81
2023-03-19T11:21:31.020Z,99246.28
2023-03-19T11:22:36.799Z,99237.50
2023-03-19T11:23:41.809Z,99239.00
2023-03-19T11:24:51.358Z,99237.84
2023-03-19T11:25:54.483Z,99239.97
2023-03-19T11:26:56.825Z,99240.16
2023-03-19T11:28:16.353Z,99245.13
2023-03-19T11:29:17.937Z,99236.03
2023-03-19T11:30:19.848Z,99237.31
2023-03-19T11:31:34.311Z,99226.75
2023-03-19T11:32:51.180Z,99238.97
2023-03-19T11:34:01.668Z,99232.53
2023-03-19T11:35:14.634Z,99218.59
2023-03-19T11:36:54.560Z,99219.41
2023-03-19T11:37:58.709Z,99219.25
2023-03-19T11:39:12.700Z,99218.28
2023-03-19T11:40:23.481Z,99218.59
2023-03-19T11:41:57.597Z,99221.09
2023-03-19T11:43:17.446Z,99223.75
2023-03-19T11:44:52.679Z,99218.09
2023-03-19T11:46:31.063Z,99215.78
2023-03-19T11:48:02.344Z,99216.78
2023-03-19T11:49:03.877Z,99210.66
2023-03-19T11:50:24.469Z,99205.63
2023-03-19T11:51:32.844Z,99209.28
2023-03-19T11:53:06.404Z,99204.47
2023-03-19T11:54:27.554Z,99216.03
2023-03-19T11:55:54.537Z,99206.94
2023-03-19T11:56:58.700Z,99210.59
2023-03-19T11:58:34.109Z,99208.25
2023-03-19T11:59:35.656Z,99203.63
2023-03-19T12:00:48.716Z,99202.63
2023-03-19T12:01:53.149Z,99198.66
2023-03-19T12:03:22.516Z,99201.09
2023-03-19T12:04:40.286Z,99192.47
2023-03-19T12:06:00.906Z,99183.16
2023-03-19T12:07:10.312Z,99192.78
2023-03-19T12:08:29.697Z,99194.16
2023-03-19T12:09:50.830Z,99191.69
2023-03-19T12:11:01.545Z,99195.28
2023-03-19T12:12:34.836Z,99189.69
2023-03-19T12:13:48.857Z,99195.84
2023-03-19T12:15:27.296Z,99186.69
2023-03-19T12:17:11.393Z,99185.22
2023-03-19T12:18:40.502Z,99188.84
2023-03-19T12:19:59.998Z,99190.84
2023-03-19T12:21:13.897Z,99189.84
2023-03-19T12:22:23.885Z,99185.38
2023-03-19T12:23:59.222Z,99191.03
2023-03-19T12:25:30.572Z,99185.25
2023-03-19T12:26:56.475Z,99190.53
2023-03-19T12:28:29.376Z,99192.97
2023-03-19T12:29:46.814Z,99186.47
2023-03-19T12:31:34.305Z,99185.31
2023-03-19T12:32:57.521Z,99182.00
2023-03-19T12:34:26.980Z,99184.47
2023-03-19T12:35:35.253Z,99177.22
2023-03-19T12:36:57.331Z,99172.41
2023-03-19T12:38:06.993Z,99171.47
2023-03-19T12:39:15.900Z,99170.81
2023-03-19T12:40:20.650Z,99172.13
2023-03-19T12:41:28.055Z,99173.09
2023-03-19T12:42:36.244Z,99167.09
2023-03-19T12:44:15.425Z,99172.25
2023-03-19T12:45:31.124Z,99176.06
2023-03-19T12:46:44.524Z,99178.88
2023-03-19T12:47:47.167Z,99175.06
2023-03-19T12:48:55.043Z,99170.44
2023-03-19T12:50:18.601Z,99171.75
2023-03-19T12:51:24.114Z,99175.91
2023-03-19T12:52:41.888Z,99170.28
2023-03-19T12:53:47.232Z,99178.09
2023-03-19T12:54:56.611Z,99166.31
2023-03-19T12:56:04.633Z,99174.28
2023-03-19T12:57:17.563Z,99176.72
2023-03-19T12:58:25.966Z,99166.47
2023-03-19T12:59:44.307Z,99171.75